FSIA/SEZ METAR and TAF weather

Enter ICAO airport designator
Station Type Date Time Source
FSIA METAR 2024/02/26 18:00 UTC NOAA

FSIA 261800Z 31019KT 9999 -RA FEW020CB SCT030 26/22 Q1010 NOSIG


Station Type Date Time Source
FSIA Decoded METAR 2024/02/26 18:00 UTC NOAA

Seychelles Inter-National Airport, Seychelles (FSIA) 04-40S 055-31E 3M
Feb 26, 2024 - 01:00 PM EST / 2024.02.26 1800 UTC
Wind: from the NW (310 degrees) at 22 MPH (19 KT):0
Visibility: greater than 7 mile(s):0
Sky conditions: partly cloudy
Weather: light rain; Cumulonimbus clouds observed
Temperature: 78 F (26 C)
Dew Point: 71 F (22 C)
Relative Humidity: 78%
Pressure (altimeter): 29.83 in. Hg (1010 hPa)
ob: FSIA 261800Z 31019KT 9999 -RA FEW020CB SCT030 26/22 Q1010 NOSIG
cycle: 18

Station Type Date Time Source
FSIA TAF 2024/02/26 18:16 UTC NOAA